sensor_id;sensor_type;location;lat;lon;timestamp;pressure;altitude;pressure_sealevel;temperature;humidity
49973;BME280;71845;49.798;10.968;2023-11-18T00:00:54;98976.38;;;0.66;72.43
49973;BME280;71845;49.798;10.968;2023-11-18T00:03:21;98957.34;;;0.56;72.15
49973;BME280;71845;49.798;10.968;2023-11-18T00:05:48;98979.22;;;0.42;72.91
49973;BME280;71845;49.798;10.968;2023-11-18T00:08:15;98962.84;;;0.29;72.52
49973;BME280;71845;49.798;10.968;2023-11-18T00:10:41;98974.28;;;0.18;73.65
49973;BME280;71845;49.798;10.968;2023-11-18T00:13:10;98975.97;;;0.23;73.08
49973;BME280;71845;49.798;10.968;2023-11-18T00:15:37;98964.72;;;0.15;72.48
49973;BME280;71845;49.798;10.968;2023-11-18T00:18:04;98987.16;;;0.33;73.04
49973;BME280;71845;49.798;10.968;2023-11-18T00:20:32;98984.81;;;0.07;73.51
49973;BME280;71845;49.798;10.968;2023-11-18T00:23:01;98975.25;;;0.03;73.61
49973;BME280;71845;49.798;10.968;2023-11-18T00:25:29;98983.25;;;-0.18;73.88
49973;BME280;71845;49.798;10.968;2023-11-18T00:27:57;98989.28;;;-0.11;73.58
49973;BME280;71845;49.798;10.968;2023-11-18T00:30:25;98982.31;;;-0.12;73.65
49973;BME280;71845;49.798;10.968;2023-11-18T00:32:53;98975.44;;;-0.19;73.73
49973;BME280;71845;49.798;10.968;2023-11-18T00:35:20;98977.19;;;-0.18;73.47
49973;BME280;71845;49.798;10.968;2023-11-18T00:37:46;98968.44;;;-0.14;73.96
49973;BME280;71845;49.798;10.968;2023-11-18T00:40:13;98965.28;;;-0.53;74.79
49973;BME280;71845;49.798;10.968;2023-11-18T00:42:43;98972.97;;;-0.33;73.96
49973;BME280;71845;49.798;10.968;2023-11-18T00:45:10;98971.22;;;-0.37;73.79
49973;BME280;71845;49.798;10.968;2023-11-18T00:47:39;98979.81;;;-0.21;73.06
49973;BME280;71845;49.798;10.968;2023-11-18T00:50:07;98982.47;;;-0.28;73.28
49973;BME280;71845;49.798;10.968;2023-11-18T00:52:34;98985.25;;;-0.57;74.00
49973;BME280;71845;49.798;10.968;2023-11-18T00:55:04;98986.88;;;-0.39;73.78
49973;BME280;71845;49.798;10.968;2023-11-18T00:57:32;98998.25;;;-0.51;75.01
49973;BME280;71845;49.798;10.968;2023-11-18T00:59:58;98986.19;;;-0.67;74.98
49973;BME280;71845;49.798;10.968;2023-11-18T01:02:25;99000.22;;;-0.92;76.03
49973;BME280;71845;49.798;10.968;2023-11-18T01:04:53;98995.72;;;-0.65;75.71
49973;BME280;71845;49.798;10.968;2023-11-18T01:07:19;98972.41;;;-0.83;75.94
49973;BME280;71845;49.798;10.968;2023-11-18T01:09:46;98996.59;;;-0.64;76.65
49973;BME280;71845;49.798;10.968;2023-11-18T01:12:14;98989.75;;;-0.84;77.47
49973;BME280;71845;49.798;10.968;2023-11-18T01:14:40;98996.59;;;-0.66;77.50
49973;BME280;71845;49.798;10.968;2023-11-18T01:17:07;99001.78;;;-0.61;77.55
49973;BME280;71845;49.798;10.968;2023-11-18T01:19:34;98993.16;;;-0.69;77.46
49973;BME280;71845;49.798;10.968;2023-11-18T01:22:03;98980.16;;;-0.69;77.89
49973;BME280;71845;49.798;10.968;2023-11-18T01:24:31;98987.91;;;-0.63;77.43
49973;BME280;71845;49.798;10.968;2023-11-18T01:26:58;98997.41;;;-0.54;76.44
49973;BME280;71845;49.798;10.968;2023-11-18T01:29:26;98993.09;;;-0.59;75.75
49973;BME280;71845;49.798;10.968;2023-11-18T01:31:53;99002.59;;;-0.51;76.33
49973;BME280;71845;49.798;10.968;2023-11-18T01:34:20;99006.91;;;-0.44;75.74
49973;BME280;71845;49.798;10.968;2023-11-18T01:36:47;99014.69;;;-0.47;75.49
49973;BME280;71845;49.798;10.968;2023-11-18T01:39:16;98990.50;;;-0.60;75.26
49973;BME280;71845;49.798;10.968;2023-11-18T01:41:43;99000.84;;;-0.52;74.04
49973;BME280;71845;49.798;10.968;2023-11-18T01:44:10;98995.69;;;-0.56;74.13
49973;BME280;71845;49.798;10.968;2023-11-18T01:46:39;99001.78;;;-0.66;74.88
49973;BME280;71845;49.798;10.968;2023-11-18T01:49:10;99002.59;;;-0.50;74.43
49973;BME280;71845;49.798;10.968;2023-11-18T01:51:39;98993.97;;;-0.63;74.45
49973;BME280;71845;49.798;10.968;2023-11-18T01:54:07;98999.13;;;-0.55;73.98
49973;BME280;71845;49.798;10.968;2023-11-18T01:56:38;99002.66;;;-0.61;73.51
49973;BME280;71845;49.798;10.968;2023-11-18T01:59:05;98991.38;;;-0.60;73.33
49973;BME280;71845;49.798;10.968;2023-11-18T02:01:35;98998.31;;;-0.65;73.83
49973;BME280;71845;49.798;10.968;2023-11-18T02:04:03;99012.22;;;-0.64;74.51
49973;BME280;71845;49.798;10.968;2023-11-18T02:06:33;98994.16;;;-0.94;74.95
49973;BME280;71845;49.798;10.968;2023-11-18T02:09:01;99013.09;;;-0.65;74.17
49973;BME280;71845;49.798;10.968;2023-11-18T02:11:32;98994.88;;;-0.72;73.92
49973;BME280;71845;49.798;10.968;2023-11-18T02:14:08;99003.56;;;-0.69;73.71
49973;BME280;71845;49.798;10.968;2023-11-18T02:16:42;99022.66;;;-0.69;74.08
49973;BME280;71845;49.798;10.968;2023-11-18T02:19:19;99010.59;;;-0.84;74.86
49973;BME280;71845;49.798;10.968;2023-11-18T02:21:47;99016.66;;;-0.87;75.00
49973;BME280;71845;49.798;10.968;2023-11-18T02:24:25;99026.16;;;-0.73;74.91
49973;BME280;71845;49.798;10.968;2023-11-18T02:26:53;99003.72;;;-1.07;75.18
49973;BME280;71845;49.798;10.968;2023-11-18T02:29:20;99031.38;;;-0.76;75.00
49973;BME280;71845;49.798;10.968;2023-11-18T02:31:50;99015.72;;;-0.72;74.49
49973;BME280;71845;49.798;10.968;2023-11-18T02:34:22;99030.41;;;-0.61;74.01
49973;BME280;71845;49.798;10.968;2023-11-18T02:36:53;99022.59;;;-0.63;73.69
49973;BME280;71845;49.798;10.968;2023-11-18T02:39:29;99025.22;;;-0.61;73.66
49973;BME280;71845;49.798;10.968;2023-11-18T02:42:01;99022.66;;;-0.69;73.86
49973;BME280;71845;49.798;10.968;2023-11-18T02:44:29;99031.28;;;-0.58;73.50
49973;BME280;71845;49.798;10.968;2023-11-18T02:46:58;99018.31;;;-0.72;72.96
49973;BME280;71845;49.798;10.968;2023-11-18T02:49:24;99034.88;;;-0.85;73.88
49973;BME280;71845;49.798;10.968;2023-11-18T02:51:51;99040.06;;;-0.77;73.68
49973;BME280;71845;49.798;10.968;2023-11-18T02:54:17;99028.75;;;-0.79;73.92
49973;BME280;71845;49.798;10.968;2023-11-18T02:56:45;99038.31;;;-0.75;73.59
49973;BME280;71845;49.798;10.968;2023-11-18T02:59:15;99040.09;;;-0.91;74.08
49973;BME280;71845;49.798;10.968;2023-11-18T03:01:42;99047.06;;;-0.92;73.80
49973;BME280;71845;49.798;10.968;2023-11-18T03:04:09;99037.53;;;-1.07;74.19
49973;BME280;71845;49.798;10.968;2023-11-18T03:06:37;99023.69;;;-1.07;73.46
49973;BME280;71845;49.798;10.968;2023-11-18T03:09:03;99037.53;;;-0.97;73.12
49973;BME280;71845;49.798;10.968;2023-11-18T03:11:32;99045.31;;;-0.91;73.48
49973;BME280;71845;49.798;10.968;2023-11-18T03:13:59;99034.00;;;-0.87;73.19
49973;BME280;71845;49.798;10.968;2023-11-18T03:16:28;99037.50;;;-0.91;73.27
49973;BME280;71845;49.798;10.968;2023-11-18T03:18:55;99019.34;;;-1.11;73.80
49973;BME280;71845;49.798;10.968;2023-11-18T03:21:23;99031.44;;;-0.98;73.77
49973;BME280;71845;49.798;10.968;2023-11-18T03:23:51;99041.94;;;-1.15;75.05
49973;BME280;71845;49.798;10.968;2023-11-18T03:26:19;99035.88;;;-1.28;75.48
49973;BME280;71845;49.798;10.968;2023-11-18T03:28:46;99032.38;;;-1.15;75.85
49973;BME280;71845;49.798;10.968;2023-11-18T03:31:12;99023.72;;;-1.20;77.06
49973;BME280;71845;49.798;10.968;2023-11-18T03:33:42;99019.41;;;-1.21;76.88
49973;BME280;71845;49.798;10.968;2023-11-18T03:36:09;99028.06;;;-1.19;76.35
49973;BME280;71845;49.798;10.968;2023-11-18T03:38:37;99033.25;;;-1.16;76.87
49973;BME280;71845;49.798;10.968;2023-11-18T03:41:04;99030.66;;;-1.28;77.08
49973;BME280;71845;49.798;10.968;2023-11-18T03:43:30;99044.47;;;-1.06;76.66
49973;BME280;71845;49.798;10.968;2023-11-18T03:45:57;99026.34;;;-1.23;76.04
49973;BME280;71845;49.798;10.968;2023-11-18T03:48:23;99037.53;;;-0.99;75.11
49973;BME280;71845;49.798;10.968;2023-11-18T03:50:53;99048.00;;;-1.21;76.25
49973;BME280;71845;49.798;10.968;2023-11-18T03:53:19;99035.81;;;-1.13;76.12
49973;BME280;71845;49.798;10.968;2023-11-18T03:55:46;99027.19;;;-1.21;76.67
49973;BME280;71845;49.798;10.968;2023-11-18T03:58:13;99040.19;;;-1.18;76.76
49973;BME280;71845;49.798;10.968;2023-11-18T04:00:39;99031.53;;;-1.20;75.57
49973;BME280;71845;49.798;10.968;2023-11-18T04:03:06;99056.69;;;-1.17;75.67
49973;BME280;71845;49.798;10.968;2023-11-18T04:05:34;99064.47;;;-1.19;75.46
49973;BME280;71845;49.798;10.968;2023-11-18T04:08:04;99040.22;;;-1.30;75.62
49973;BME280;71845;49.798;10.968;2023-11-18T04:10:32;99053.19;;;-1.16;75.06
49973;BME280;71845;49.798;10.968;2023-11-18T04:12:58;99051.47;;;-1.28;75.55
49973;BME280;71845;49.798;10.968;2023-11-18T04:15:25;99042.84;;;-1.32;75.61
49973;BME280;71845;49.798;10.968;2023-11-18T04:17:52;99054.09;;;-1.22;75.37
49973;BME280;71845;49.798;10.968;2023-11-18T04:20:19;99056.69;;;-1.27;74.84
49973;BME280;71845;49.798;10.968;2023-11-18T04:22:46;99044.56;;;-1.37;75.11
49973;BME280;71845;49.798;10.968;2023-11-18T04:25:15;99066.25;;;-1.27;75.56
49973;BME280;71845;49.798;10.968;2023-11-18T04:27:41;99054.97;;;-1.34;75.57
49973;BME280;71845;49.798;10.968;2023-11-18T04:30:09;99076.66;;;-1.36;76.49
49973;BME280;71845;49.798;10.968;2023-11-18T04:32:35;99061.03;;;-1.24;75.66
49973;BME280;71845;49.798;10.968;2023-11-18T04:35:02;99067.09;;;-1.31;74.47
49973;BME280;71845;49.798;10.968;2023-11-18T04:37:33;99055.84;;;-1.32;75.56
49973;BME280;71845;49.798;10.968;2023-11-18T04:40:00;99067.94;;;-1.15;76.20
49973;BME280;71845;49.798;10.968;2023-11-18T04:42:30;99044.56;;;-1.34;76.62
49973;BME280;71845;49.798;10.968;2023-11-18T04:44:57;99044.56;;;-1.28;76.78
49973;BME280;71845;49.798;10.968;2023-11-18T04:47:24;99052.34;;;-1.20;75.83
49973;BME280;71845;49.798;10.968;2023-11-18T04:49:52;99052.38;;;-1.45;76.54
49973;BME280;71845;49.798;10.968;2023-11-18T04:52:19;99048.00;;;-1.30;76.13
49973;BME280;71845;49.798;10.968;2023-11-18T04:54:45;99050.63;;;-1.33;76.17
49973;BME280;71845;49.798;10.968;2023-11-18T04:57:14;99036.78;;;-1.45;76.30
49973;BME280;71845;49.798;10.968;2023-11-18T04:59:43;99043.69;;;-1.34;76.28
49973;BME280;71845;49.798;10.968;2023-11-18T05:02:09;99048.94;;;-1.40;76.47
49973;BME280;71845;49.798;10.968;2023-11-18T05:04:36;99039.34;;;-1.28;76.77
49973;BME280;71845;49.798;10.968;2023-11-18T05:07:03;99045.44;;;-1.32;76.24
49973;BME280;71845;49.798;10.968;2023-11-18T05:09:31;99042.84;;;-1.36;77.17
49973;BME280;71845;49.798;10.968;2023-11-18T05:12:00;99034.19;;;-1.42;77.36
49973;BME280;71845;49.798;10.968;2023-11-18T05:14:27;99038.50;;;-1.39;76.88
49973;BME280;71845;49.798;10.968;2023-11-18T05:16:56;99054.09;;;-1.39;76.57
49973;BME280;71845;49.798;10.968;2023-11-18T05:19:23;99050.69;;;-1.58;76.51
49973;BME280;71845;49.798;10.968;2023-11-18T05:21:51;99041.16;;;-1.68;76.52
49973;BME280;71845;49.798;10.968;2023-11-18T05:24:19;99059.34;;;-1.61;76.64
49973;BME280;71845;49.798;10.968;2023-11-18T05:26:45;99040.28;;;-1.88;76.70
49973;BME280;71845;49.798;10.968;2023-11-18T05:29:12;99059.38;;;-1.82;76.06
49973;BME280;71845;49.798;10.968;2023-11-18T05:31:42;99044.63;;;-1.90;76.32
49973;BME280;71845;49.798;10.968;2023-11-18T05:34:10;99052.44;;;-1.88;76.14
49973;BME280;71845;49.798;10.968;2023-11-18T05:36:38;99056.72;;;-1.70;75.22
49973;BME280;71845;49.798;10.968;2023-11-18T05:39:05;99054.16;;;-1.73;74.99
49973;BME280;71845;49.798;10.968;2023-11-18T05:41:32;99043.75;;;-1.73;74.87
49973;BME280;71845;49.798;10.968;2023-11-18T05:44:00;99054.13;;;-1.65;75.00
49973;BME280;71845;49.798;10.968;2023-11-18T05:46:27;99055.03;;;-1.65;74.87
49973;BME280;71845;49.798;10.968;2023-11-18T05:48:55;99057.59;;;-1.54;73.88
49973;BME280;71845;49.798;10.968;2023-11-18T05:51:26;99057.59;;;-1.54;74.23
49973;BME280;71845;49.798;10.968;2023-11-18T05:53:54;99047.22;;;-1.60;73.50
49973;BME280;71845;49.798;10.968;2023-11-18T05:56:21;99055.91;;;-1.74;74.91
49973;BME280;71845;49.798;10.968;2023-11-18T05:58:50;99061.06;;;-1.63;74.60
49973;BME280;71845;49.798;10.968;2023-11-18T06:01:18;99045.47;;;-1.57;73.93
49973;BME280;71845;49.798;10.968;2023-11-18T06:03:45;99031.63;;;-1.85;74.74
49973;BME280;71845;49.798;10.968;2023-11-18T06:06:14;99045.47;;;-1.67;74.23
49973;BME280;71845;49.798;10.968;2023-11-18T06:08:43;99061.09;;;-1.78;74.18
49973;BME280;71845;49.798;10.968;2023-11-18T06:11:10;99056.72;;;-1.58;74.19
49973;BME280;71845;49.798;10.968;2023-11-18T06:13:40;99049.84;;;-1.76;74.74
49973;BME280;71845;49.798;10.968;2023-11-18T06:16:13;99062.81;;;-1.68;73.85
49973;BME280;71845;49.798;10.968;2023-11-18T06:18:41;99049.81;;;-1.87;74.16
49973;BME280;71845;49.798;10.968;2023-11-18T06:21:11;99060.22;;;-1.66;74.06
49973;BME280;71845;49.798;10.968;2023-11-18T06:23:38;99053.28;;;-1.66;73.59
49973;BME280;71845;49.798;10.968;2023-11-18T06:26:07;99060.19;;;-2.08;74.25
49973;BME280;71845;49.798;10.968;2023-11-18T06:28:35;99067.13;;;-2.03;74.19
49973;BME280;71845;49.798;10.968;2023-11-18T06:31:02;99074.09;;;-1.89;73.54
49973;BME280;71845;49.798;10.968;2023-11-18T06:33:29;99061.97;;;-1.82;73.16
49973;BME280;71845;49.798;10.968;2023-11-18T06:35:56;99056.75;;;-1.87;73.55
49973;BME280;71845;49.798;10.968;2023-11-18T06:38:22;99071.50;;;-1.81;73.40
49973;BME280;71845;49.798;10.968;2023-11-18T06:40:51;99076.66;;;-1.88;73.55
49973;BME280;71845;49.798;10.968;2023-11-18T06:43:19;99081.88;;;-1.78;73.09
49973;BME280;71845;49.798;10.968;2023-11-18T06:45:46;99069.75;;;-2.03;74.27
49973;BME280;71845;49.798;10.968;2023-11-18T06:48:14;99057.63;;;-1.93;72.97
49973;BME280;71845;49.798;10.968;2023-11-18T06:50:41;99069.75;;;-1.76;73.42
49973;BME280;71845;49.798;10.968;2023-11-18T06:53:09;99058.50;;;-1.77;73.31
49973;BME280;71845;49.798;10.968;2023-11-18T06:55:36;99070.63;;;-1.77;74.11
49973;BME280;71845;49.798;10.968;2023-11-18T06:58:03;99071.44;;;-2.03;74.73
49973;BME280;71845;49.798;10.968;2023-11-18T07:00:31;99057.63;;;-2.01;74.72
49973;BME280;71845;49.798;10.968;2023-11-18T07:02:57;99067.16;;;-1.84;74.84
49973;BME280;71845;49.798;10.968;2023-11-18T07:05:25;99074.94;;;-1.76;74.70
49973;BME280;71845;49.798;10.968;2023-11-18T07:07:51;99068.91;;;-1.69;74.26
49973;BME280;71845;49.798;10.968;2023-11-18T07:10:19;99066.28;;;-1.83;74.54
49973;BME280;71845;49.798;10.968;2023-11-18T07:12:46;99077.53;;;-1.95;74.59
49973;BME280;71845;49.798;10.968;2023-11-18T07:15:14;99076.66;;;-1.97;74.68
49973;BME280;71845;49.798;10.968;2023-11-18T07:17:42;99055.88;;;-1.86;74.29
49973;BME280;71845;49.798;10.968;2023-11-18T07:20:10;99081.00;;;-1.77;74.68
49973;BME280;71845;49.798;10.968;2023-11-18T07:22:39;99100.94;;;-1.64;74.19
49973;BME280;71845;49.798;10.968;2023-11-18T07:25:06;99088.81;;;-1.70;74.22
49973;BME280;71845;49.798;10.968;2023-11-18T07:27:34;99097.44;;;-1.61;74.65
49973;BME280;71845;49.798;10.968;2023-11-18T07:30:01;99078.41;;;-1.60;74.49
49973;BME280;71845;49.798;10.968;2023-11-18T07:32:28;99081.84;;;-1.44;75.04
49973;BME280;71845;49.798;10.968;2023-11-18T07:34:56;99067.97;;;-1.43;74.65
49973;BME280;71845;49.798;10.968;2023-11-18T07:37:23;99089.66;;;-1.35;76.07
49973;BME280;71845;49.798;10.968;2023-11-18T07:39:49;99089.41;;;0.69;72.59
49973;BME280;71845;49.798;10.968;2023-11-18T07:42:16;99080.66;;;-0.44;73.30
49973;BME280;71845;49.798;10.968;2023-11-18T07:44:43;99086.81;;;-0.56;74.26
49973;BME280;71845;49.798;10.968;2023-11-18T07:47:11;99098.97;;;-0.54;74.29
49973;BME280;71845;49.798;10.968;2023-11-18T07:49:37;99086.84;;;-0.65;74.63
49973;BME280;71845;49.798;10.968;2023-11-18T07:52:05;99105.91;;;-0.52;74.78
49973;BME280;71845;49.798;10.968;2023-11-18T07:54:32;99113.66;;;-0.47;75.22
49973;BME280;71845;49.798;10.968;2023-11-18T07:57:00;99093.66;;;-0.36;76.06
49973;BME280;71845;49.798;10.968;2023-11-18T07:59:26;99110.06;;;-0.18;76.08
49973;BME280;71845;49.798;10.968;2023-11-18T08:01:54;99114.31;;;-0.03;75.81
49973;BME280;71845;49.798;10.968;2023-11-18T08:04:22;99115.19;;;-0.01;75.48
49973;BME280;71845;49.798;10.968;2023-11-18T08:06:52;99117.75;;;0.00;75.36
49973;BME280;71845;49.798;10.968;2023-11-18T08:09:20;99117.81;;;-0.07;74.98
49973;BME280;71845;49.798;10.968;2023-11-18T08:11:51;99123.91;;;-0.07;74.99
49973;BME280;71845;49.798;10.968;2023-11-18T08:14:20;99122.13;;;-0.02;75.17
49973;BME280;71845;49.798;10.968;2023-11-18T08:16:47;99123.81;;;0.04;74.54
49973;BME280;71845;49.798;10.968;2023-11-18T08:19:15;99123.03;;;-0.06;75.95
49973;BME280;71845;49.798;10.968;2023-11-18T08:21:42;99116.94;;;-0.03;75.57
49973;BME280;71845;49.798;10.968;2023-11-18T08:24:09;99123.78;;;0.10;76.39
49973;BME280;71845;49.798;10.968;2023-11-18T08:26:37;99103.81;;;0.05;75.80
49973;BME280;71845;49.798;10.968;2023-11-18T08:29:04;99105.53;;;0.12;75.83
49973;BME280;71845;49.798;10.968;2023-11-18T08:31:33;99080.28;;;0.17;75.88
49973;BME280;71845;49.798;10.968;2023-11-18T08:34:00;99101.03;;;0.34;75.54
49973;BME280;71845;49.798;10.968;2023-11-18T08:36:28;99114.84;;;0.42;76.15
49973;BME280;71845;49.798;10.968;2023-11-18T08:38:57;99121.84;;;0.37;76.41
49973;BME280;71845;49.798;10.968;2023-11-18T08:41:25;99126.16;;;0.43;76.13
49973;BME280;71845;49.798;10.968;2023-11-18T08:43:56;99128.69;;;0.55;75.95
49973;BME280;71845;49.798;10.968;2023-11-18T08:46:23;99116.53;;;0.48;75.93
49973;BME280;71845;49.798;10.968;2023-11-18T08:48:50;99105.22;;;0.49;75.31
49973;BME280;71845;49.798;10.968;2023-11-18T08:51:17;99133.94;;;0.44;76.43
49973;BME280;71845;49.798;10.968;2023-11-18T08:53:43;99130.47;;;0.46;76.37
49973;BME280;71845;49.798;10.968;2023-11-18T08:56:11;99143.47;;;0.50;76.72
49973;BME280;71845;49.798;10.968;2023-11-18T08:58:41;99137.38;;;0.53;76.71
49973;BME280;71845;49.798;10.968;2023-11-18T09:01:11;99138.22;;;0.56;76.78
49973;BME280;71845;49.798;10.968;2023-11-18T09:03:41;99138.00;;;3.29;83.40
49973;BME280;71845;49.798;10.968;2023-11-18T09:06:14;99121.81;;;1.31;75.97
49973;BME280;71845;49.798;10.968;2023-11-18T09:08:51;99128.06;;;1.18;75.20
49973;BME280;71845;49.798;10.968;2023-11-18T09:11:20;99115.03;;;1.14;75.39
49973;BME280;71845;49.798;10.968;2023-11-18T09:13:50;99131.56;;;1.18;76.08
49973;BME280;71845;49.798;10.968;2023-11-18T09:16:20;99117.84;;;0.94;74.93
49973;BME280;71845;49.798;10.968;2023-11-18T09:18:49;99120.66;;;0.77;75.61
49973;BME280;71845;49.798;10.968;2023-11-18T09:21:16;99122.41;;;0.75;76.34
49973;BME280;71845;49.798;10.968;2023-11-18T09:23:49;99106.78;;;0.69;75.77
49973;BME280;71845;49.798;10.968;2023-11-18T09:26:16;99116.94;;;1.00;75.70
49973;BME280;71845;49.798;10.968;2023-11-18T09:28:44;99110.78;;;1.04;75.17
49973;BME280;71845;49.798;10.968;2023-11-18T09:31:10;99111.50;;;1.19;75.83
49973;BME280;71845;49.798;10.968;2023-11-18T09:33:40;99110.66;;;1.17;75.71
49973;BME280;71845;49.798;10.968;2023-11-18T09:36:15;99114.69;;;1.44;74.74
49973;BME280;71845;49.798;10.968;2023-11-18T09:38:43;99118.38;;;1.31;75.25
49973;BME280;71845;49.798;10.968;2023-11-18T09:41:12;99107.03;;;1.28;75.71
49973;BME280;71845;49.798;10.968;2023-11-18T09:43:40;99107.50;;;1.65;75.36
49973;BME280;71845;49.798;10.968;2023-11-18T09:46:13;99118.19;;;1.46;75.38
49973;BME280;71845;49.798;10.968;2023-11-18T09:48:43;99104.84;;;1.66;75.76
49973;BME280;71845;49.798;10.968;2023-11-18T09:51:20;99086.38;;;1.79;75.23
49973;BME280;71845;49.798;10.968;2023-11-18T09:53:50;99098.47;;;1.89;74.89
49973;BME280;71845;49.798;10.968;2023-11-18T09:56:23;99102.59;;;2.03;74.66
49973;BME280;71845;49.798;10.968;2023-11-18T09:59:05;99091.19;;;2.10;74.30
49973;BME280;71845;49.798;10.968;2023-11-18T10:01:37;99107.34;;;2.35;74.38
49973;BME280;71845;49.798;10.968;2023-11-18T10:04:06;99095.03;;;2.42;74.19
49973;BME280;71845;49.798;10.968;2023-11-18T10:06:35;99094.09;;;2.45;75.08
49973;BME280;71845;49.798;10.968;2023-11-18T10:09:06;99094.59;;;2.67;74.69
49973;BME280;71845;49.798;10.968;2023-11-18T10:11:42;99087.59;;;2.69;75.26
49973;BME280;71845;49.798;10.968;2023-11-18T10:14:12;99090.31;;;2.63;75.16
49973;BME280;71845;49.798;10.968;2023-11-18T10:16:41;99095.44;;;2.69;76.19
49973;BME280;71845;49.798;10.968;2023-11-18T10:19:13;99102.31;;;2.76;75.85
49973;BME280;71845;49.798;10.968;2023-11-18T10:21:43;99091.84;;;2.76;75.76
49973;BME280;71845;49.798;10.968;2023-11-18T10:24:14;99105.63;;;2.84;75.64
49973;BME280;71845;49.798;10.968;2023-11-18T10:26:46;99087.56;;;2.72;75.83
49973;BME280;71845;49.798;10.968;2023-11-18T10:29:15;99103.72;;;2.94;75.79
49973;BME280;71845;49.798;10.968;2023-11-18T10:31:43;99113.81;;;3.14;75.63
49973;BME280;71845;49.798;10.968;2023-11-18T10:34:14;99110.31;;;3.16;74.76
49973;BME280;71845;49.798;10.968;2023-11-18T10:36:58;99102.31;;;3.23;74.97
49973;BME280;71845;49.798;10.968;2023-11-18T10:39:28;99100.34;;;3.35;74.99
49973;BME280;71845;49.798;10.968;2023-11-18T10:42:01;99088.34;;;3.23;75.16
49973;BME280;71845;49.798;10.968;2023-11-18T10:44:28;99108.13;;;3.39;75.03
49973;BME280;71845;49.798;10.968;2023-11-18T10:46:56;99102.75;;;3.46;74.89
49973;BME280;71845;49.798;10.968;2023-11-18T10:49:27;99101.78;;;3.50;75.37
49973;BME280;71845;49.798;10.968;2023-11-18T10:51:55;99099.19;;;3.48;75.59
49973;BME280;71845;49.798;10.968;2023-11-18T10:54:22;99111.50;;;3.45;75.73
49973;BME280;71845;49.798;10.968;2023-11-18T10:56:52;99098.25;;;3.51;75.59
49973;BME280;71845;49.798;10.968;2023-11-18T10:59:22;99090.91;;;3.68;74.89
49973;BME280;71845;49.798;10.968;2023-11-18T11:01:49;99086.22;;;3.83;75.01
49973;BME280;71845;49.798;10.968;2023-11-18T11:04:16;99074.81;;;3.85;75.10
49973;BME280;71845;49.798;10.968;2023-11-18T11:10:33;99079.28;;;4.18;74.67
49973;BME280;71845;49.798;10.968;2023-11-18T11:13:04;99081.72;;;4.27;74.54
49973;BME280;71845;49.798;10.968;2023-11-18T11:15:40;99084.88;;;4.40;74.94
49973;BME280;71845;49.798;10.968;2023-11-18T11:18:11;99091.13;;;4.36;74.51
49973;BME280;71845;49.798;10.968;2023-11-18T11:20:47;99086.41;;;4.49;74.48
49973;BME280;71845;49.798;10.968;2023-11-18T11:23:21;99084.28;;;9.45;75.69
49973;BME280;71845;49.798;10.968;2023-11-18T11:26:02;99082.00;;;5.49;71.78
49973;BME280;71845;49.798;10.968;2023-11-18T11:28:39;99081.28;;;5.12;72.93
49973;BME280;71845;49.798;10.968;2023-11-18T11:31:14;99075.19;;;5.12;72.80
49973;BME280;71845;49.798;10.968;2023-11-18T11:33:48;99075.31;;;5.07;72.94
49973;BME280;71845;49.798;10.968;2023-11-18T11:36:21;99069.38;;;4.99;73.29
49973;BME280;71845;49.798;10.968;2023-11-18T11:38:50;99075.56;;;10.37;77.32
49973;BME280;71845;49.798;10.968;2023-11-18T11:41:23;99060.59;;;9.99;62.85
49973;BME280;71845;49.798;10.968;2023-11-18T11:43:52;99061.69;;;6.67;69.58
49973;BME280;71845;49.798;10.968;2023-11-18T11:46:25;99059.84;;;6.44;70.81
49973;BME280;71845;49.798;10.968;2023-11-18T11:48:59;99061.53;;;6.18;71.09
49973;BME280;71845;49.798;10.968;2023-11-18T11:51:39;99048.75;;;5.77;70.81
49973;BME280;71845;49.798;10.968;2023-11-18T11:54:11;99049.47;;;5.82;71.02
49973;BME280;71845;49.798;10.968;2023-11-18T11:56:43;99046.34;;;5.70;71.29
49973;BME280;71845;49.798;10.968;2023-11-18T11:59:12;99045.34;;;5.73;71.56
49973;BME280;71845;49.798;10.968;2023-11-18T12:01:40;99043.16;;;5.59;71.42
49973;BME280;71845;49.798;10.968;2023-11-18T12:04:12;99028.09;;;5.34;72.20
49973;BME280;71845;49.798;10.968;2023-11-18T12:06:46;99021.63;;;5.46;72.14
49973;BME280;71845;49.798;10.968;2023-11-18T12:09:18;99018.31;;;5.39;72.14
49973;BME280;71845;49.798;10.968;2023-11-18T12:11:47;98997.97;;;5.46;72.22
49973;BME280;71845;49.798;10.968;2023-11-18T12:14:16;99001.81;;;5.34;72.65
49973;BME280;71845;49.798;10.968;2023-11-18T12:17:04;98993.97;;;5.33;72.96
49973;BME280;71845;49.798;10.968;2023-11-18T12:19:35;98975.91;;;5.22;72.90
49973;BME280;71845;49.798;10.968;2023-11-18T12:22:14;98961.34;;;5.40;72.98
49973;BME280;71845;49.798;10.968;2023-11-18T12:28:10;98934.00;;;5.46;72.37
49973;BME280;71845;49.798;10.968;2023-11-18T12:30:38;98928.03;;;5.40;72.76
49973;BME280;71845;49.798;10.968;2023-11-18T12:33:09;98943.38;;;5.54;72.82
49973;BME280;71845;49.798;10.968;2023-11-18T12:35:44;98943.91;;;5.37;73.14
49973;BME280;71845;49.798;10.968;2023-11-18T12:38:54;98922.88;;;5.37;73.17
49973;BME280;71845;49.798;10.968;2023-11-18T12:41:34;98921.31;;;5.59;72.69
49973;BME280;71845;49.798;10.968;2023-11-18T12:44:15;98928.16;;;5.64;73.05
49973;BME280;71845;49.798;10.968;2023-11-18T12:46:51;98934.19;;;5.68;72.83
49973;BME280;71845;49.798;10.968;2023-11-18T12:49:21;98930.38;;;5.77;72.47
49973;BME280;71845;49.798;10.968;2023-11-18T12:51:50;98932.41;;;5.68;72.75
49973;BME280;71845;49.798;10.968;2023-11-18T12:54:20;98934.50;;;5.85;72.03
49973;BME280;71845;49.798;10.968;2023-11-18T12:56:50;98930.09;;;5.86;71.74
49973;BME280;71845;49.798;10.968;2023-11-18T12:59:20;98926.63;;;5.84;72.06
49973;BME280;71845;49.798;10.968;2023-11-18T13:01:50;98925.38;;;5.96;71.97
49973;BME280;71845;49.798;10.968;2023-11-18T13:04:19;98913.28;;;5.90;71.97
49973;BME280;71845;49.798;10.968;2023-11-18T13:06:46;98922.03;;;5.91;71.91
49973;BME280;71845;49.798;10.968;2023-11-18T13:09:14;98920.13;;;5.96;71.72
49973;BME280;71845;49.798;10.968;2023-11-18T13:11:52;98912.75;;;5.80;72.04